QTR76W OTHH-CYUL
Flight info
| Callsign | QTR76W |
|---|---|
| Flight time | N/A |
| Altitude | 34000 |
| Route | TULUB B457 NARMI J735 KFA H741 JBL L768 MODAD B544 ALE M861 NISAP UM861 BELSU UA17 YAVRU UA4 ERKAL UL615 DIGBO UQ26 TUDBU Q26 ETUBA T226 NAVOD DCT PADGU DCT KEROP DCT SASAL DCT SUBEN T161 AKINI T159 PETIX Z744 COSJE T892 RIDSU Z114 ADENU L608 DENUT L610 KOPUL Q63 ICTAM L179 SAWPE DCT UNFIT DCT LEDGO DCT UNLID DCT ELSOX/M085F340 DCT DINIM/M085F350 DCT 51N020W 50N030W 4830N04000W 47N050W DCT PORTI/N0488F360 N202E MIILS DCT KEBIG ROCKT3 |
| Aircraft | A35K/H-SDE2E3GHIJ3J4J5LM1ORWXY/LB1D1 |
Departure
| Time | N/A |
|---|---|
| Airport | Hamad International Airport (OTHH) |
Arrival
| Time | 2026-05-07 10:47 |
|---|---|
| Airport | Montreal / Pierre Elliott Trudeau International Airport (CYUL) |
| Time | Latitude | Longitude | Altitude | Speed | Heading |
|---|---|---|---|---|---|
| 2026-05-07 10:41 | 45.65216 | -73.43221 | 4471 ft | 250 kts | 255° |
| 2026-05-07 10:41 | 45.64782 | -73.45579 | 4181 ft | 248 kts | 256° |
| 2026-05-07 10:41 | 45.64346 | -73.47947 | 3995 ft | 242 kts | 256° |
| 2026-05-07 10:42 | 45.63931 | -73.50195 | 3928 ft | 228 kts | 255° |
| 2026-05-07 10:42 | 45.63515 | -73.52384 | 3546 ft | 227 kts | 253° |
| 2026-05-07 10:42 | 45.62816 | -73.54376 | 3264 ft | 223 kts | 233° |
| 2026-05-07 10:42 | 45.61761 | -73.55950 | 3103 ft | 215 kts | 225° |
| 2026-05-07 10:43 | 45.60680 | -73.57334 | 3006 ft | 203 kts | 225° |
| 2026-05-07 10:43 | 45.59664 | -73.58667 | 2999 ft | 197 kts | 226° |
| 2026-05-07 10:43 | 45.58687 | -73.59959 | 2943 ft | 185 kts | 226° |
| 2026-05-07 10:43 | 45.57765 | -73.61187 | 2736 ft | 177 kts | 226° |
| 2026-05-07 10:44 | 45.56875 | -73.62370 | 2502 ft | 173 kts | 226° |
| 2026-05-07 10:44 | 45.55993 | -73.63526 | 2245 ft | 169 kts | 226° |
| 2026-05-07 10:44 | 45.55143 | -73.64643 | 2025 ft | 162 kts | 227° |
| 2026-05-07 10:44 | 45.54332 | -73.65711 | 1805 ft | 155 kts | 226° |
| 2026-05-07 10:45 | 45.53575 | -73.66703 | 1588 ft | 143 kts | 227° |
| 2026-05-07 10:45 | 45.52868 | -73.67634 | 1402 ft | 133 kts | 226° |
| 2026-05-07 10:45 | 45.52193 | -73.68521 | 1223 ft | 133 kts | 226° |
| 2026-05-07 10:45 | 45.51510 | -73.69419 | 1033 ft | 135 kts | 225° |
| 2026-05-07 10:46 | 45.50818 | -73.70326 | 834 ft | 135 kts | 225° |
| 2026-05-07 10:46 | 45.50134 | -73.71222 | 649 ft | 133 kts | 223° |
| 2026-05-07 10:46 | 45.49448 | -73.72116 | 503 ft | 135 kts | 225° |
| 2026-05-07 10:46 | 45.48761 | -73.73032 | 296 ft | 134 kts | 224° |
| 2026-05-07 10:47 | 45.48076 | -73.73925 | 136 ft | 133 kts | 225° |
| 2026-05-07 10:47 | 45.47456 | -73.74739 | 116 ft | 96 kts | 222° |
| 2026-05-07 10:47 | 45.47154 | -73.75133 | 115 ft | 42 kts | 223° |
| 2026-05-07 10:47 | 45.46975 | -73.75367 | 114 ft | 21 kts | 222° |
| 2026-05-07 10:48 | 45.46864 | -73.75497 | 111 ft | 20 kts | 212° |
| 2026-05-07 10:48 | 45.46741 | -73.75579 | 112 ft | 19 kts | 199° |
| 2026-05-07 10:48 | 45.46606 | -73.75631 | 108 ft | 20 kts | 193° |
| 2026-05-07 10:48 | 45.46470 | -73.75677 | 110 ft | 20 kts | 193° |
| 2026-05-07 10:49 | 45.46353 | -73.75711 | 106 ft | 5 kts | 191° |
| 2026-05-07 10:49 | 45.46315 | -73.75722 | 109 ft | 6 kts | 191° |
| 2026-05-07 10:49 | 45.46274 | -73.75733 | 109 ft | 7 kts | 189° |
| 2026-05-07 10:49 | 45.46215 | -73.75728 | 107 ft | 10 kts | 175° |
| 2026-05-07 10:50 | 45.46135 | -73.75719 | 106 ft | 12 kts | 176° |
| 2026-05-07 10:50 | 45.46061 | -73.75751 | 106 ft | 11 kts | 227° |
| 2026-05-07 10:50 | 45.46038 | -73.75845 | 109 ft | 10 kts | 274° |
| 2026-05-07 10:50 | 45.46041 | -73.75951 | 107 ft | 11 kts | 276° |
| 2026-05-07 10:51 | 45.46026 | -73.76054 | 108 ft | 11 kts | 221° |
| 2026-05-07 10:51 | 45.45956 | -73.76059 | 108 ft | 11 kts | 176° |
| 2026-05-07 10:51 | 45.45870 | -73.76048 | 108 ft | 13 kts | 171° |
| 2026-05-07 10:51 | 45.45772 | -73.76017 | 109 ft | 15 kts | 157° |
| 2026-05-07 10:52 | 45.45728 | -73.75888 | 110 ft | 16 kts | 92° |
| 2026-05-07 10:52 | 45.45728 | -73.75714 | 109 ft | 19 kts | 77° |
| 2026-05-07 10:52 | 45.45759 | -73.75550 | 109 ft | 7 kts | 71° |
| 2026-05-07 10:52 | 45.45791 | -73.75495 | 108 ft | 7 kts | 13° |
| 2026-05-07 10:53 | 45.45845 | -73.75494 | 110 ft | 5 kts | 2° |
| 2026-05-07 10:53 | 45.45853 | -73.75494 | 110 ft | 1 kts | 2° |
| 2026-05-07 10:53 | 45.45858 | -73.75494 | 110 ft | 0 kts | 2° |